createdAt,value
2022-12-11T00:01:33.641Z,-0.04
2022-12-11T00:04:00.248Z,-0.26
2022-12-11T00:06:26.733Z,-0.14
2022-12-11T00:08:54.585Z,-0.19
2022-12-11T00:11:22.686Z,-0.01
2022-12-11T00:13:49.164Z,-0.25
2022-12-11T00:16:15.970Z,0.00
2022-12-11T00:18:42.581Z,-0.04
2022-12-11T00:21:13.894Z,-0.08
2022-12-11T00:23:40.965Z,-0.10
2022-12-11T00:26:11.875Z,0.00
2022-12-11T00:28:39.030Z,-0.06
2022-12-11T00:31:07.897Z,0.06
2022-12-11T00:33:35.010Z,-0.03
2022-12-11T00:36:02.252Z,-0.11
2022-12-11T00:38:29.286Z,-0.05
2022-12-11T00:40:59.945Z,0.06
2022-12-11T00:43:26.929Z,0.07
2022-12-11T00:45:53.520Z,-0.01
2022-12-11T00:48:20.232Z,0.11
2022-12-11T00:50:47.248Z,0.10
2022-12-11T00:53:14.341Z,-0.07
2022-12-11T00:55:42.301Z,0.02
2022-12-11T00:58:09.492Z,0.02
2022-12-11T01:00:36.553Z,-0.04
2022-12-11T01:03:04.172Z,0.05
2022-12-11T01:05:31.602Z,0.04
2022-12-11T01:07:58.580Z,0.12
2022-12-11T01:10:25.675Z,0.04
2022-12-11T01:13:06.124Z,0.12
2022-12-11T01:15:41.514Z,0.13
2022-12-11T01:18:09.454Z,0.11
2022-12-11T01:20:38.252Z,0.16
2022-12-11T01:23:05.216Z,0.17
2022-12-11T01:25:33.339Z,0.18
2022-12-11T01:28:00.314Z,0.20
2022-12-11T01:30:27.356Z,0.20
2022-12-11T01:32:54.346Z,0.03
2022-12-11T01:35:21.124Z,0.18
2022-12-11T01:37:48.053Z,0.22
2022-12-11T01:40:17.352Z,0.15
2022-12-11T01:42:44.053Z,0.24
2022-12-11T01:45:26.724Z,0.25
2022-12-11T01:48:10.401Z,0.18
2022-12-11T01:50:41.851Z,0.15
2022-12-11T01:53:12.827Z,0.14
2022-12-11T01:55:40.534Z,0.17
2022-12-11T01:58:08.828Z,0.16
2022-12-11T02:00:35.917Z,0.26
2022-12-11T02:03:02.469Z,0.20
2022-12-11T02:05:28.998Z,0.28
2022-12-11T02:08:00.468Z,0.29
2022-12-11T02:10:47.798Z,0.30
2022-12-11T02:13:26.545Z,0.25
2022-12-11T02:16:21.631Z,0.37
2022-12-11T02:19:08.597Z,0.35
2022-12-11T02:21:41.146Z,0.37
2022-12-11T02:24:36.825Z,0.31
2022-12-11T02:27:22.124Z,0.37
2022-12-11T02:30:08.782Z,0.38
2022-12-11T02:32:43.404Z,0.37
2022-12-11T02:35:33.569Z,0.33
2022-12-11T02:38:06.022Z,0.26
2022-12-11T02:40:37.516Z,0.36
2022-12-11T02:43:08.546Z,0.37
2022-12-11T02:45:37.207Z,0.33
2022-12-11T02:48:06.571Z,0.38
2022-12-11T02:50:37.222Z,0.29
2022-12-11T02:53:06.386Z,0.40
2022-12-11T02:55:37.371Z,0.41
2022-12-11T02:58:18.344Z,0.20
2022-12-11T03:00:46.397Z,0.43
2022-12-11T03:03:13.618Z,0.30
2022-12-11T03:05:42.449Z,0.28
2022-12-11T03:08:09.818Z,0.41
2022-12-11T03:10:36.839Z,0.44
2022-12-11T03:13:05.394Z,0.36
2022-12-11T03:15:59.137Z,0.36
2022-12-11T03:18:36.403Z,0.41
2022-12-11T03:21:13.093Z,0.36
2022-12-11T03:23:51.567Z,0.42
2022-12-11T03:26:20.144Z,0.41
2022-12-11T03:29:00.940Z,0.42
2022-12-11T03:31:34.592Z,0.28
2022-12-11T03:34:08.598Z,0.43
2022-12-11T03:36:38.735Z,0.41
2022-12-11T03:39:13.281Z,0.37
2022-12-11T03:41:41.118Z,0.47
2022-12-11T03:44:09.189Z,0.43
2022-12-11T03:46:39.552Z,0.29
2022-12-11T03:49:11.529Z,0.48
2022-12-11T03:51:39.278Z,0.29
2022-12-11T03:54:07.078Z,0.35
2022-12-11T03:56:38.421Z,0.40
2022-12-11T03:59:05.527Z,0.48
2022-12-11T04:01:32.553Z,0.44
2022-12-11T04:03:59.142Z,0.47
2022-12-11T04:06:26.204Z,0.41
2022-12-11T04:08:53.200Z,0.46
2022-12-11T04:11:34.735Z,0.45
2022-12-11T04:14:25.026Z,0.37
2022-12-11T04:16:52.162Z,0.40
2022-12-11T04:19:37.890Z,0.44
2022-12-11T04:22:33.565Z,0.38
2022-12-11T04:25:05.712Z,0.34
2022-12-11T04:27:51.146Z,0.32
2022-12-11T04:30:19.293Z,0.46
2022-12-11T04:32:46.350Z,0.39
2022-12-11T04:35:13.990Z,0.45
2022-12-11T04:37:41.315Z,0.33
2022-12-11T04:40:12.564Z,0.45
2022-12-11T04:42:39.622Z,0.46
2022-12-11T04:45:08.421Z,0.41
2022-12-11T04:47:39.983Z,0.46
2022-12-11T04:50:09.143Z,0.35
2022-12-11T04:52:35.725Z,0.38
2022-12-11T04:55:08.503Z,0.44
2022-12-11T04:57:35.358Z,0.40
2022-12-11T05:00:02.365Z,0.34
2022-12-11T05:02:29.037Z,0.45
2022-12-11T05:04:55.544Z,0.34
2022-12-11T05:07:22.520Z,0.45
2022-12-11T05:09:49.682Z,0.38
2022-12-11T05:12:16.225Z,0.18
2022-12-11T05:14:42.724Z,0.41
2022-12-11T05:17:09.712Z,0.34
2022-12-11T05:19:36.838Z,0.42
2022-12-11T05:22:04.008Z,0.44
2022-12-11T05:24:30.532Z,0.29
2022-12-11T05:26:57.568Z,0.38
2022-12-11T05:29:24.639Z,0.39
2022-12-11T05:31:51.433Z,0.39
2022-12-11T05:34:17.934Z,0.37
2022-12-11T05:36:44.961Z,0.41
2022-12-11T05:39:12.437Z,0.27
2022-12-11T05:41:39.125Z,0.24
2022-12-11T05:44:06.266Z,0.31
2022-12-11T05:46:32.861Z,0.30
2022-12-11T05:49:01.620Z,0.43
2022-12-11T05:51:29.908Z,0.44
2022-12-11T05:53:58.013Z,0.33
2022-12-11T05:56:27.488Z,0.45
2022-12-11T05:58:55.637Z,0.37
2022-12-11T06:01:23.829Z,0.46
2022-12-11T06:03:50.425Z,0.46
2022-12-11T06:06:17.031Z,0.41
2022-12-11T06:08:44.196Z,0.37
2022-12-11T06:11:13.994Z,0.45
2022-12-11T06:13:40.985Z,0.37
2022-12-11T06:16:08.496Z,0.34
2022-12-11T06:18:41.182Z,0.34
2022-12-11T06:21:16.225Z,0.41
2022-12-11T06:23:43.380Z,0.38
2022-12-11T06:26:11.298Z,0.30
2022-12-11T06:28:38.609Z,0.25
2022-12-11T06:31:06.216Z,0.20
2022-12-11T06:33:32.797Z,0.32
2022-12-11T06:36:12.227Z,0.35
2022-12-11T06:38:39.553Z,0.34
2022-12-11T06:41:08.110Z,0.34
2022-12-11T06:43:36.680Z,0.31
2022-12-11T06:46:24.732Z,0.37
2022-12-11T06:48:51.376Z,0.35
2022-12-11T06:51:20.982Z,0.25
2022-12-11T06:53:52.591Z,0.26
2022-12-11T06:56:20.255Z,0.31
2022-12-11T06:58:47.298Z,0.25
2022-12-11T07:01:22.572Z,0.29
2022-12-11T07:03:49.874Z,0.25
2022-12-11T07:06:18.160Z,0.36
2022-12-11T07:08:45.262Z,0.28
2022-12-11T07:11:14.955Z,0.26
2022-12-11T07:13:44.766Z,0.25
2022-12-11T07:16:13.425Z,0.32
2022-12-11T07:18:42.143Z,0.33
2022-12-11T07:21:10.444Z,0.21
2022-12-11T07:23:37.051Z,0.31
2022-12-11T07:26:11.867Z,0.30
2022-12-11T07:28:39.224Z,0.31
2022-12-11T07:31:12.083Z,0.29
2022-12-11T07:33:39.544Z,0.25
2022-12-11T07:36:09.149Z,0.25
2022-12-11T07:38:36.284Z,0.22
2022-12-11T07:41:05.399Z,0.32
2022-12-11T07:43:32.950Z,0.31
2022-12-11T07:46:09.224Z,0.31
2022-12-11T07:48:37.273Z,0.30
2022-12-11T07:51:13.124Z,0.31
2022-12-11T07:53:39.625Z,0.14
2022-12-11T07:56:06.808Z,0.27
2022-12-11T07:58:33.991Z,0.30
2022-12-11T08:01:00.826Z,0.27
2022-12-11T08:03:27.375Z,0.17
2022-12-11T08:05:53.960Z,0.20
2022-12-11T08:08:20.578Z,-0.08
2022-12-11T08:10:47.376Z,0.21
2022-12-11T08:13:14.480Z,0.24
2022-12-11T08:15:41.017Z,0.34
2022-12-11T08:18:07.567Z,0.34
2022-12-11T08:20:34.121Z,0.36
2022-12-11T08:23:00.632Z,0.16
2022-12-11T08:25:27.173Z,0.29
2022-12-11T08:27:53.689Z,0.38
2022-12-11T08:30:20.717Z,0.39
2022-12-11T08:32:47.216Z,0.37
2022-12-11T08:35:13.774Z,0.30
2022-12-11T08:37:40.361Z,0.27
2022-12-11T08:40:07.843Z,0.30
2022-12-11T08:42:34.377Z,0.31
2022-12-11T08:45:00.871Z,0.19
2022-12-11T08:47:27.719Z,0.31
2022-12-11T08:49:54.710Z,0.26
2022-12-11T08:52:21.257Z,0.35
2022-12-11T08:54:48.367Z,0.35
2022-12-11T08:57:15.046Z,0.33
2022-12-11T08:59:41.600Z,0.28
2022-12-11T09:02:12.665Z,0.28
2022-12-11T09:04:39.254Z,0.36
2022-12-11T09:07:05.862Z,0.36
2022-12-11T09:09:32.397Z,0.40
2022-12-11T09:12:01.426Z,0.39
2022-12-11T09:14:28.046Z,0.39
2022-12-11T09:16:54.614Z,0.45
2022-12-11T09:19:21.196Z,0.44
2022-12-11T09:21:47.804Z,0.35
2022-12-11T09:24:15.602Z,0.28
2022-12-11T09:26:42.214Z,0.47
2022-12-11T09:29:08.847Z,0.44
2022-12-11T09:31:36.911Z,0.52
2022-12-11T09:34:09.045Z,0.52
2022-12-11T09:36:37.997Z,0.33
2022-12-11T09:39:06.241Z,0.48
2022-12-11T09:41:38.407Z,0.54
2022-12-11T09:44:26.686Z,0.58
2022-12-11T09:46:53.551Z,0.54
2022-12-11T09:49:25.844Z,0.58
2022-12-11T09:52:10.942Z,0.52
2022-12-11T09:54:45.396Z,0.61
2022-12-11T09:57:30.393Z,0.49
2022-12-11T10:00:11.426Z,0.59
2022-12-11T10:03:19.779Z,0.62
2022-12-11T10:06:05.671Z,0.64
2022-12-11T10:08:40.199Z,0.65
2022-12-11T10:11:43.652Z,0.58
2022-12-11T10:14:29.834Z,0.58
2022-12-11T10:17:21.451Z,0.61
2022-12-11T10:19:48.938Z,0.57
2022-12-11T10:22:22.823Z,0.54
2022-12-11T10:25:10.621Z,0.66
2022-12-11T10:27:40.110Z,0.62
2022-12-11T10:30:13.069Z,0.70
2022-12-11T10:33:17.795Z,0.68
2022-12-11T10:35:55.648Z,0.75
2022-12-11T10:38:33.851Z,0.64
2022-12-11T10:41:10.724Z,0.79
2022-12-11T10:43:43.376Z,0.63
2022-12-11T10:46:25.374Z,0.73
2022-12-11T10:48:54.833Z,0.66
2022-12-11T10:51:24.481Z,0.85
2022-12-11T10:54:05.557Z,0.77
2022-12-11T10:56:37.344Z,0.67
2022-12-11T10:59:04.416Z,0.58
2022-12-11T11:01:33.165Z,0.64
2022-12-11T11:04:06.716Z,0.80
2022-12-11T11:06:33.641Z,0.80
2022-12-11T11:09:01.909Z,0.76
2022-12-11T11:11:38.281Z,0.77
2022-12-11T11:14:11.887Z,0.78
2022-12-11T11:16:40.679Z,0.76
2022-12-11T11:19:07.757Z,0.74
2022-12-11T11:21:35.937Z,0.77
2022-12-11T11:24:03.627Z,0.76
2022-12-11T11:27:04.366Z,0.90
2022-12-11T11:29:29.541Z,0.79
2022-12-11T11:31:56.963Z,0.74
2022-12-11T11:34:23.616Z,0.82
2022-12-11T11:36:58.762Z,0.90
2022-12-11T11:39:45.082Z,0.95
2022-12-11T11:42:52.660Z,0.89
2022-12-11T11:45:31.869Z,0.94
2022-12-11T11:48:11.258Z,1.04
2022-12-11T11:50:44.917Z,1.07
2022-12-11T11:53:37.964Z,1.13
2022-12-11T11:56:21.296Z,1.16
2022-12-11T11:59:07.167Z,1.18
2022-12-11T12:01:33.717Z,1.17
2022-12-11T12:04:03.150Z,1.22
2022-12-11T12:06:55.126Z,1.18
2022-12-11T12:09:52.527Z,1.13
2022-12-11T12:12:34.418Z,1.11
2022-12-11T12:15:20.533Z,1.07
2022-12-11T12:18:22.827Z,1.00
2022-12-11T12:21:11.257Z,1.09
2022-12-11T12:24:09.264Z,1.15
2022-12-11T12:26:38.942Z,1.16
2022-12-11T12:29:30.394Z,1.09
2022-12-11T12:32:02.849Z,1.15
2022-12-11T12:35:06.633Z,1.10
2022-12-11T12:37:51.203Z,1.11
2022-12-11T12:40:18.102Z,1.08
2022-12-11T12:43:06.915Z,1.06
2022-12-11T12:46:02.801Z,0.93
2022-12-11T12:48:30.063Z,0.98
2022-12-11T12:50:57.158Z,0.93
2022-12-11T12:53:27.676Z,1.04
2022-12-11T12:55:54.962Z,1.04
2022-12-11T12:58:40.057Z,1.00
2022-12-11T13:01:17.967Z,1.08
2022-12-11T13:03:54.207Z,1.13
2022-12-11T13:06:43.480Z,1.10
2022-12-11T13:09:25.162Z,1.08
2022-12-11T13:11:57.606Z,1.07
2022-12-11T13:14:30.276Z,1.00
2022-12-11T13:17:20.333Z,0.87
2022-12-11T13:19:49.076Z,1.06
2022-12-11T13:22:16.029Z,1.11
2022-12-11T13:24:48.576Z,1.03
2022-12-11T13:27:30.597Z,1.14
2022-12-11T13:30:06.922Z,1.18
2022-12-11T13:32:34.717Z,1.11
2022-12-11T13:35:06.410Z,1.18
2022-12-11T13:37:37.182Z,1.08
2022-12-11T13:40:14.202Z,0.99
2022-12-11T13:42:53.337Z,1.02
2022-12-11T13:45:43.420Z,1.08
2022-12-11T13:48:20.016Z,1.04
2022-12-11T13:50:47.774Z,0.97
2022-12-11T13:53:17.003Z,1.07
2022-12-11T13:55:44.565Z,0.90
2022-12-11T13:58:20.240Z,1.09
2022-12-11T14:01:21.466Z,1.08
2022-12-11T14:04:00.015Z,1.06
2022-12-11T14:06:28.562Z,1.01
2022-12-11T14:08:59.383Z,0.93
2022-12-11T14:11:30.579Z,1.15
2022-12-11T14:14:00.793Z,1.16
2022-12-11T14:16:29.120Z,1.09
2022-12-11T14:19:09.740Z,1.04
2022-12-11T14:21:37.089Z,1.12
2022-12-11T14:24:06.553Z,1.14
2022-12-11T14:26:35.789Z,1.02
2022-12-11T14:29:02.945Z,0.99
2022-12-11T14:31:44.261Z,0.97
2022-12-11T14:34:18.240Z,1.07
2022-12-11T14:36:48.092Z,1.07
2022-12-11T14:39:21.154Z,1.05
2022-12-11T14:41:57.985Z,1.03
2022-12-11T14:44:28.040Z,0.98
2022-12-11T14:47:04.360Z,0.79
2022-12-11T14:49:45.461Z,0.90
2022-12-11T14:52:20.259Z,0.93
2022-12-11T14:54:54.122Z,0.80
2022-12-11T14:57:26.899Z,0.81
2022-12-11T14:59:55.350Z,0.89
2022-12-11T15:02:30.510Z,0.95
2022-12-11T15:05:23.572Z,0.90
2022-12-11T15:08:24.511Z,0.88
2022-12-11T15:11:14.693Z,0.89
2022-12-11T15:13:59.801Z,0.90
2022-12-11T15:16:31.863Z,0.80
2022-12-11T15:18:59.323Z,0.86
2022-12-11T15:21:31.503Z,0.86
2022-12-11T15:24:02.480Z,0.79
2022-12-11T15:26:38.749Z,0.82
2022-12-11T15:29:26.038Z,0.83
2022-12-11T15:32:19.025Z,0.74
2022-12-11T15:34:52.985Z,0.79
2022-12-11T15:37:22.562Z,0.79
2022-12-11T15:39:49.368Z,0.75
2022-12-11T15:42:23.042Z,0.66
2022-12-11T15:44:49.655Z,0.78
2022-12-11T15:47:22.240Z,0.73
2022-12-11T15:49:48.825Z,0.76
2022-12-11T15:52:15.688Z,0.73
2022-12-11T15:54:42.680Z,0.69
2022-12-11T15:57:16.578Z,0.61
2022-12-11T15:59:44.558Z,0.72
2022-12-11T16:02:13.049Z,0.70
2022-12-11T16:04:39.977Z,0.68
2022-12-11T16:07:18.530Z,0.70
2022-12-11T16:09:46.056Z,0.71
2022-12-11T16:12:14.326Z,0.69
2022-12-11T16:14:42.254Z,0.66
2022-12-11T16:17:10.166Z,0.50
2022-12-11T16:19:37.506Z,0.58
2022-12-11T16:22:05.206Z,0.68
2022-12-11T16:24:33.047Z,0.68
2022-12-11T16:26:59.650Z,0.50
2022-12-11T16:29:26.257Z,0.66
2022-12-11T16:31:52.731Z,0.63
2022-12-11T16:34:19.843Z,0.50
2022-12-11T16:36:46.562Z,0.48
2022-12-11T16:39:13.702Z,0.44
2022-12-11T16:41:40.242Z,0.51
2022-12-11T16:44:06.730Z,0.48
2022-12-11T16:46:33.574Z,0.49
2022-12-11T16:49:00.534Z,0.51
2022-12-11T16:51:27.129Z,0.55
2022-12-11T16:53:53.839Z,0.59
2022-12-11T16:56:20.395Z,0.51
2022-12-11T16:58:47.712Z,0.55
2022-12-11T17:01:16.115Z,0.53
2022-12-11T17:03:43.862Z,0.59
2022-12-11T17:06:13.485Z,0.51
2022-12-11T17:08:41.268Z,0.57
2022-12-11T17:11:12.955Z,0.58
2022-12-11T17:13:39.959Z,0.56
2022-12-11T17:16:08.661Z,0.52
2022-12-11T17:18:35.521Z,0.43
2022-12-11T17:21:10.452Z,0.57
2022-12-11T17:23:37.181Z,0.46
2022-12-11T17:26:03.965Z,0.49
2022-12-11T17:28:31.479Z,0.52
2022-12-11T17:30:59.136Z,0.48
2022-12-11T17:33:25.835Z,0.47
2022-12-11T17:35:52.462Z,0.48
2022-12-11T17:38:19.003Z,0.45
2022-12-11T17:40:45.565Z,0.43
2022-12-11T17:43:12.707Z,0.44
2022-12-11T17:45:43.371Z,0.43
2022-12-11T17:48:13.527Z,0.51
2022-12-11T17:50:44.869Z,0.50
2022-12-11T17:53:12.917Z,0.50
2022-12-11T17:55:44.295Z,0.45
2022-12-11T17:58:12.006Z,0.42
2022-12-11T18:00:40.844Z,0.46
2022-12-11T18:03:07.503Z,0.45
2022-12-11T18:05:34.850Z,0.37
2022-12-11T18:08:01.491Z,0.43
2022-12-11T18:10:28.137Z,0.45
2022-12-11T18:12:54.715Z,0.47
2022-12-11T18:15:21.272Z,0.47
2022-12-11T18:17:48.542Z,0.42
2022-12-11T18:20:15.987Z,0.46
2022-12-11T18:22:43.391Z,0.42
2022-12-11T18:25:12.337Z,0.34
2022-12-11T18:27:39.741Z,0.29
2022-12-11T18:30:07.497Z,0.30
2022-12-11T18:32:33.994Z,0.39
2022-12-11T18:35:00.526Z,0.27
2022-12-11T18:37:28.232Z,0.32
2022-12-11T18:39:54.940Z,0.41
2022-12-11T18:42:32.626Z,0.37
2022-12-11T18:45:00.040Z,0.26
2022-12-11T18:47:26.612Z,0.34
2022-12-11T18:49:53.845Z,0.28
2022-12-11T18:52:20.837Z,0.15
2022-12-11T18:54:48.045Z,0.32
2022-12-11T18:57:15.078Z,0.37
2022-12-11T18:59:41.592Z,0.29
2022-12-11T19:02:08.773Z,0.30
2022-12-11T19:04:36.162Z,0.33
2022-12-11T19:07:02.741Z,0.20
2022-12-11T19:09:31.662Z,0.22
2022-12-11T19:12:02.129Z,0.24
2022-12-11T19:14:28.629Z,0.34
2022-12-11T19:16:55.368Z,0.26
2022-12-11T19:19:22.293Z,0.17
2022-12-11T19:21:49.943Z,0.21
2022-12-11T19:24:20.068Z,0.33
2022-12-11T19:26:46.793Z,0.17
2022-12-11T19:29:26.566Z,0.28
2022-12-11T19:31:55.176Z,0.39
2022-12-11T19:34:23.211Z,0.39
2022-12-11T19:36:50.653Z,0.23
2022-12-11T19:39:17.804Z,0.33
2022-12-11T19:41:46.497Z,0.32
2022-12-11T19:44:13.125Z,0.19
2022-12-11T19:46:40.727Z,0.29
2022-12-11T19:49:07.379Z,0.19
2022-12-11T19:51:38.434Z,0.31
2022-12-11T19:54:06.953Z,0.21
2022-12-11T19:56:34.536Z,0.34
2022-12-11T19:59:07.426Z,0.25
2022-12-11T20:01:36.905Z,0.30
2022-12-11T20:04:07.612Z,0.20
2022-12-11T20:06:36.834Z,0.31
2022-12-11T20:09:05.266Z,0.25
2022-12-11T20:11:33.632Z,0.20
2022-12-11T20:14:00.481Z,0.15
2022-12-11T20:16:46.372Z,0.23
2022-12-11T20:19:14.009Z,0.16
2022-12-11T20:21:40.949Z,0.18
2022-12-11T20:24:07.877Z,0.16
2022-12-11T20:26:36.488Z,0.18
2022-12-11T20:29:07.202Z,0.25
2022-12-11T20:31:35.487Z,0.15
2022-12-11T20:34:02.881Z,0.11
2022-12-11T20:36:29.899Z,0.07
2022-12-11T20:38:57.029Z,0.16
2022-12-11T20:41:26.060Z,0.17
2022-12-11T20:43:54.059Z,0.04
2022-12-11T20:46:22.856Z,0.18
2022-12-11T20:48:50.003Z,-0.06
2022-12-11T20:51:22.431Z,0.13
2022-12-11T20:53:58.288Z,0.10
2022-12-11T20:56:27.835Z,0.13
2022-12-11T20:58:55.444Z,0.08
2022-12-11T21:01:24.559Z,0.02
2022-12-11T21:03:52.720Z,-0.02
2022-12-11T21:06:31.230Z,0.06
2022-12-11T21:09:00.238Z,-0.05
2022-12-11T21:11:27.750Z,0.07
2022-12-11T21:13:54.807Z,0.02
2022-12-11T21:16:22.445Z,-0.03
2022-12-11T21:18:49.742Z,0.02
2022-12-11T21:21:17.591Z,-0.09
2022-12-11T21:23:44.996Z,0.05
2022-12-11T21:26:12.557Z,0.06
2022-12-11T21:28:39.140Z,0.05
2022-12-11T21:31:14.259Z,0.03
2022-12-11T21:33:40.968Z,0.04
2022-12-11T21:36:10.966Z,-0.04
2022-12-11T21:38:37.707Z,-0.21
2022-12-11T21:41:24.159Z,-0.07
2022-12-11T21:44:56.702Z,-0.09
2022-12-11T21:46:39.816Z,-0.14
2022-12-11T21:49:08.312Z,-0.16
2022-12-11T21:51:41.499Z,-0.07
2022-12-11T21:54:14.380Z,-0.08
2022-12-11T21:56:41.750Z,-0.10
2022-12-11T21:59:10.267Z,-0.09
2022-12-11T22:01:42.038Z,-0.17
2022-12-11T22:04:10.962Z,-0.06
2022-12-11T22:06:37.890Z,-0.08
2022-12-11T22:09:05.175Z,-0.05
2022-12-11T22:11:33.385Z,-0.10
2022-12-11T22:14:00.564Z,-0.07
2022-12-11T22:16:28.002Z,-0.09
2022-12-11T22:18:55.064Z,-0.06
2022-12-11T22:21:21.793Z,-0.12
2022-12-11T22:23:48.471Z,-0.08
2022-12-11T22:26:19.959Z,-0.09
2022-12-11T22:28:46.751Z,-0.14
2022-12-11T22:31:16.734Z,-0.12
2022-12-11T22:33:43.600Z,-0.17
2022-12-11T22:36:11.590Z,-0.10
2022-12-11T22:38:39.467Z,-0.16
2022-12-11T22:41:17.565Z,-0.18
2022-12-11T22:43:48.867Z,-0.14
2022-12-11T22:46:17.570Z,-0.19
2022-12-11T22:48:44.665Z,-0.21
2022-12-11T22:51:11.707Z,-0.19
2022-12-11T22:53:39.092Z,-0.17
2022-12-11T22:56:07.129Z,-0.26
2022-12-11T22:58:33.745Z,-0.19
2022-12-11T23:01:00.836Z,-0.23
2022-12-11T23:03:27.902Z,-0.27
2022-12-11T23:05:54.700Z,-0.30
2022-12-11T23:08:21.255Z,-0.15
2022-12-11T23:10:47.929Z,-0.28
2022-12-11T23:13:14.637Z,-0.10
2022-12-11T23:15:41.169Z,-0.32
2022-12-11T23:18:08.237Z,-0.21
2022-12-11T23:20:35.256Z,-0.23
2022-12-11T23:23:02.789Z,-0.39
2022-12-11T23:25:29.780Z,-0.14
2022-12-11T23:27:56.425Z,-0.28
2022-12-11T23:30:23.988Z,-0.16
2022-12-11T23:32:50.658Z,-0.22
2022-12-11T23:35:17.255Z,-0.23
2022-12-11T23:37:44.225Z,-0.18
2022-12-11T23:40:11.410Z,-0.18
2022-12-11T23:42:37.933Z,-0.23
2022-12-11T23:45:05.331Z,-0.15
2022-12-11T23:47:31.884Z,-0.19
2022-12-11T23:49:58.420Z,-0.19
2022-12-11T23:52:26.584Z,-0.22
2022-12-11T23:54:53.120Z,-0.27
2022-12-11T23:57:20.058Z,-0.32
2022-12-11T23:59:47.084Z,-0.25
